Time;durP1;ratioP1;P1;durP2;ratioP2;P2;SDS_P1;SDS_P2;PMS_P1;PMS_P2;Temp;Humidity;BMP_temperature;BMP_pressure;BME280_temperature;BME280_humidity;BME280_pressure;Samples;Min_cycle;Max_cycle;Signal;HPM_P1;HPM_P2
2023/11/30 00:01:12;;;;;;;8.38;5.47;;;;;;;1.69;73.29;95427.53;4828890;29;20055;-79
2023/11/30 00:03:41;;;;;;;8.38;5.38;;;;;;;1.70;72.21;95424.00;4828446;29;20057;-78
2023/11/30 00:06:11;;;;;;;8.85;5.35;;;;;;;1.69;71.71;95412.91;4828263;29;20133;-79
2023/11/30 00:08:39;;;;;;;9.60;5.80;;;;;;;1.69;71.10;95412.13;4828355;29;20070;-79
2023/11/30 00:11:12;;;;;;;11.13;5.90;;;;;;;1.68;71.52;95411.28;4826984;29;20087;-81
2023/11/30 00:13:44;;;;;;;10.60;6.55;;;;;;;1.69;71.35;95418.06;4826723;29;20561;-81
2023/11/30 00:16:12;;;;;;;10.32;6.05;;;;;;;1.70;71.36;95416.28;4826367;29;20115;-82
2023/11/30 00:18:41;;;;;;;10.65;6.10;;;;;;;1.70;71.59;95411.16;4826666;29;20142;-82
2023/11/30 00:21:09;;;;;;;10.70;7.10;;;;;;;1.71;73.06;95413.56;4827272;29;20086;-81
2023/11/30 00:23:40;;;;;;;8.20;5.88;;;;;;;1.70;71.97;95411.94;4826723;29;20050;-82
2023/11/30 00:26:08;;;;;;;11.98;6.32;;;;;;;1.68;71.61;95407.91;4826578;29;20140;-82
2023/11/30 00:28:36;;;;;;;9.98;6.43;;;;;;;1.63;71.45;95400.69;4826591;29;20058;-82
2023/11/30 00:31:07;;;;;;;9.00;5.43;;;;;;;1.60;71.29;95399.22;4826337;29;20058;-81
2023/11/30 00:33:36;;;;;;;7.13;5.60;;;;;;;1.57;71.16;95404.66;4826706;29;20060;-81
2023/11/30 00:36:08;;;;;;;8.50;6.00;;;;;;;1.54;70.64;95391.34;4826809;29;20524;-82
2023/11/30 00:38:37;;;;;;;7.72;5.00;;;;;;;1.51;70.57;95399.34;4826156;29;20061;-82
2023/11/30 00:41:06;;;;;;;8.70;5.72;;;;;;;1.47;70.92;95393.72;4826739;29;20060;-82
2023/11/30 00:43:34;;;;;;;11.52;6.57;;;;;;;1.45;72.49;95393.06;4826277;29;20569;-82
2023/11/30 00:46:04;;;;;;;6.10;5.15;;;;;;;1.44;72.68;95388.88;4826384;29;20468;-81
2023/11/30 00:48:38;;;;;;;6.43;4.85;;;;;;;1.42;71.73;95386.47;4826643;29;20062;-82
2023/11/30 00:51:09;;;;;;;5.40;4.22;;;;;;;1.39;71.04;95385.97;4827046;29;20046;-82
2023/11/30 00:53:38;;;;;;;6.28;4.40;;;;;;;1.36;71.66;95381.16;4826128;29;20054;-82
2023/11/30 00:56:08;;;;;;;5.45;3.67;;;;;;;1.35;71.67;95379.53;4826639;29;20058;-82
2023/11/30 00:58:37;;;;;;;6.10;4.45;;;;;;;1.36;72.04;95376.03;4826383;29;20085;-82
2023/11/30 01:01:10;;;;;;;5.95;3.80;;;;;;;1.38;72.07;95381.81;4826677;29;20057;-82
2023/11/30 01:03:41;;;;;;;5.93;4.43;;;;;;;1.36;71.39;95376.03;4825855;29;20137;-82
2023/11/30 01:06:11;;;;;;;5.07;3.75;;;;;;;1.34;71.77;95380.50;4826736;29;20490;-82
2023/11/30 01:08:40;;;;;;;6.38;4.00;;;;;;;1.32;71.62;95372.16;4825820;29;20054;-81
2023/11/30 01:11:10;;;;;;;5.70;4.32;;;;;;;1.28;71.30;95373.41;4826676;29;20119;-81
2023/11/30 01:13:38;;;;;;;7.68;5.07;;;;;;;1.24;71.41;95373.69;4825921;29;20081;-79
2023/11/30 01:16:09;;;;;;;6.18;4.07;;;;;;;1.21;71.23;95368.88;4827365;29;20126;-79
2023/11/30 01:18:37;;;;;;;5.97;4.28;;;;;;;1.20;71.37;95377.56;4827118;29;20122;-79
2023/11/30 01:21:10;;;;;;;6.07;4.30;;;;;;;1.17;71.40;95377.84;4827606;29;20054;-79
2023/11/30 01:23:39;;;;;;;7.57;3.83;;;;;;;1.18;72.31;95378.66;4827761;29;20054;-78
2023/11/30 01:26:09;;;;;;;6.10;4.22;;;;;;;1.16;72.45;95376.25;4828028;29;20065;-79
2023/11/30 01:28:40;;;;;;;6.55;4.00;;;;;;;1.13;71.82;95376.53;4839291;29;20107;-79
2023/11/30 01:31:09;;;;;;;6.93;4.10;;;;;;;1.11;72.52;95383.59;4845297;29;20515;-80
2023/11/30 01:33:37;;;;;;;5.88;4.60;;;;;;;1.11;72.91;95382.78;4831295;29;20141;-82
2023/11/30 01:36:06;;;;;;;6.28;4.30;;;;;;;1.14;73.09;95391.00;4827434;29;20122;-82
2023/11/30 01:38:36;;;;;;;8.55;4.55;;;;;;;1.14;72.10;95397.91;4825897;29;20078;-81
2023/11/30 01:41:06;;;;;;;5.03;3.83;;;;;;;1.13;71.95;95407.38;4825952;29;20058;-82
2023/11/30 01:43:34;;;;;;;6.68;4.18;;;;;;;1.13;72.15;95396.28;4824616;29;20051;-82
2023/11/30 01:46:04;;;;;;;6.68;4.70;;;;;;;1.11;73.54;95391.28;4824421;29;20531;-82
2023/11/30 01:48:35;;;;;;;5.88;4.53;;;;;;;1.12;73.54;95389.56;4826805;29;20463;-82
2023/11/30 01:51:09;;;;;;;6.00;4.10;;;;;;;1.10;73.38;95382.00;4826604;29;20083;-82
2023/11/30 01:53:43;;;;;;;6.28;4.53;;;;;;;1.07;72.93;95377.16;4826252;29;20046;-82
2023/11/30 01:56:15;;;;;;;5.43;4.40;;;;;;;1.07;73.45;95368.66;4826193;29;20058;-82
2023/11/30 01:58:46;;;;;;;5.05;3.72;;;;;;;1.06;73.64;95365.28;4826547;29;20061;-82
2023/11/30 02:01:16;;;;;;;5.95;3.80;;;;;;;1.05;73.02;95353.41;4825552;29;20059;-82
2023/11/30 02:03:44;;;;;;;5.53;3.45;;;;;;;1.01;72.74;95357.25;4824980;29;20054;-82
2023/11/30 02:06:16;;;;;;;4.85;3.15;;;;;;;0.96;72.36;95364.56;4825890;29;20069;-82
2023/11/30 02:08:45;;;;;;;5.63;4.72;;;;;;;0.93;72.53;95360.56;4825960;29;20110;-82
2023/11/30 02:11:14;;;;;;;4.35;3.40;;;;;;;0.91;72.46;95361.66;4825684;29;20115;-82
2023/11/30 02:13:42;;;;;;;4.68;2.72;;;;;;;0.87;72.61;95355.22;4824778;29;20054;-81
2023/11/30 02:16:11;;;;;;;5.57;3.22;;;;;;;0.85;72.59;95346.88;4826474;29;20061;-82
2023/11/30 02:18:43;;;;;;;5.07;3.83;;;;;;;0.84;72.81;95350.41;4828363;29;20053;-81
2023/11/30 02:21:11;;;;;;;5.60;3.23;;;;;;;0.81;72.37;95352.31;4828237;29;20062;-82
2023/11/30 02:23:42;;;;;;;4.93;3.80;;;;;;;0.79;72.78;95349.09;4828168;29;20050;-82
2023/11/30 02:26:11;;;;;;;8.20;4.60;;;;;;;0.78;72.53;95342.34;4828864;29;20050;-82
2023/11/30 02:28:41;;;;;;;5.53;4.20;;;;;;;0.76;72.58;95343.44;4843755;29;20062;-81
2023/11/30 02:31:08;;;;;;;5.95;4.57;;;;;;;0.73;72.88;95336.88;4848278;29;20058;-82
2023/11/30 02:33:37;;;;;;;8.38;5.85;;;;;;;0.73;72.91;95336.88;4848171;29;20057;-82
2023/11/30 02:36:05;;;;;;;8.77;6.20;;;;;;;0.71;72.96;95338.78;4836172;29;20118;-81
2023/11/30 02:38:34;;;;;;;6.72;5.45;;;;;;;0.68;72.26;95336.53;4828652;29;20086;-82
2023/11/30 02:41:04;;;;;;;5.50;4.57;;;;;;;0.65;72.38;95326.53;4827891;29;20057;-81
2023/11/30 02:43:32;;;;;;;5.53;3.65;;;;;;;0.59;72.23;95312.56;4829468;29;20050;-82
2023/11/30 02:46:00;;;;;;;4.28;3.42;;;;;;;0.54;72.34;95301.94;4827635;29;20102;-81
2023/11/30 02:48:29;;;;;;;3.38;2.25;;;;;;;0.51;72.98;95299.69;4828193;29;20054;-82
2023/11/30 02:50:56;;;;;;;2.88;2.30;;;;;;;0.47;72.70;95297.59;4827188;29;20054;-82
2023/11/30 02:53:25;;;;;;;3.38;2.65;;;;;;;0.45;72.78;95286.66;4827325;29;20055;-81
2023/11/30 02:55:53;;;;;;;3.80;3.22;;;;;;;0.43;73.00;95291.13;4828048;29;20089;-81
2023/11/30 02:58:23;;;;;;;2.28;2.05;;;;;;;0.40;73.32;95311.00;4828370;29;20054;-81
2023/11/30 03:00:51;;;;;;;2.50;2.30;;;;;;;0.39;73.37;95309.41;4828105;29;20085;-82
2023/11/30 03:03:20;;;;;;;4.45;2.42;;;;;;;0.45;73.64;95304.63;4827523;29;20046;-82
2023/11/30 03:05:48;;;;;;;4.03;2.83;;;;;;;0.46;73.40;95303.66;4827719;29;20466;-82
2023/11/30 03:08:16;;;;;;;3.67;2.75;;;;;;;0.45;73.06;95294.34;4827531;29;20128;-82
2023/11/30 03:10:45;;;;;;;5.15;3.05;;;;;;;0.45;72.92;95289.22;4827947;29;20109;-82
2023/11/30 03:13:13;;;;;;;3.65;2.80;;;;;;;0.40;73.24;95282.78;4826918;29;20081;-82
2023/11/30 03:15:46;;;;;;;5.28;3.33;;;;;;;0.37;73.26;95284.84;4826838;29;20079;-81
2023/11/30 03:18:14;;;;;;;3.13;2.63;;;;;;;0.35;73.27;95289.31;4827088;29;20062;-81
2023/11/30 03:20:41;;;;;;;6.20;3.35;;;;;;;0.32;73.34;95287.06;4827342;29;20054;-82
2023/11/30 03:23:09;;;;;;;5.05;3.22;;;;;;;0.31;73.69;95293.16;4827269;29;20054;-82
2023/11/30 03:25:37;;;;;;;4.93;3.85;;;;;;;0.32;73.18;95294.75;4826970;29;20119;-82
2023/11/30 03:28:05;;;;;;;4.38;3.78;;;;;;;0.29;73.22;95301.00;4826273;29;20106;-82
2023/11/30 03:30:33;;;;;;;6.75;3.35;;;;;;;0.31;73.31;95305.97;4826844;29;20520;-82
2023/11/30 03:33:03;;;;;;;7.18;3.63;;;;;;;0.29;73.33;95306.13;4826757;29;20050;-82
2023/11/30 03:35:31;;;;;;;5.55;4.53;;;;;;;0.26;73.63;95306.41;4826677;29;20433;-82
2023/11/30 03:37:59;;;;;;;7.32;4.20;;;;;;;0.25;73.09;95304.00;4826637;29;20107;-82
2023/11/30 03:40:28;;;;;;;5.82;4.28;;;;;;;0.22;73.50;95296.59;4826695;29;20050;-82
2023/11/30 03:42:57;;;;;;;6.47;4.70;;;;;;;0.16;73.04;95290.31;4827314;29;20513;-82
2023/11/30 03:45:25;;;;;;;7.20;4.95;;;;;;;0.14;73.48;95285.34;4840525;29;20038;-82
2023/11/30 03:47:53;;;;;;;8.63;5.32;;;;;;;0.13;73.33;95280.34;4841094;29;20114;-82
2023/11/30 03:50:23;;;;;;;6.82;5.45;;;;;;;0.11;73.75;95277.97;4841577;29;20054;-82
2023/11/30 03:52:51;;;;;;;7.55;4.95;;;;;;;0.11;73.77;95272.00;4829447;29;20047;-81
2023/11/30 03:55:20;;;;;;;8.57;5.53;;;;;;;0.12;74.28;95271.06;4826731;29;20429;-82
2023/11/30 03:57:48;;;;;;;6.85;5.30;;;;;;;0.14;75.18;95262.25;4826581;29;20050;-81
2023/11/30 04:00:17;;;;;;;7.72;5.75;;;;;;;0.18;74.83;95257.66;4826749;29;20496;-82
2023/11/30 04:02:45;;;;;;;11.07;5.93;;;;;;;0.17;74.14;95256.81;4826566;29;20111;-81
2023/11/30 04:05:14;;;;;;;11.52;6.78;;;;;;;0.15;74.56;95252.81;4826680;29;20436;-82
2023/11/30 04:07:45;;;;;;;11.18;6.40;;;;;;;0.15;75.24;95247.66;4809979;29;20054;-81
2023/11/30 04:10:13;;;;;;;8.02;6.20;;;;;;;0.15;74.50;95247.66;4826018;29;20081;-82
2023/11/30 04:12:43;;;;;;;8.20;5.55;;;;;;;0.14;74.41;95259.69;4826526;29;20058;-82
2023/11/30 04:15:11;;;;;;;9.48;6.20;;;;;;;0.14;74.13;95259.69;4825866;29;20145;-82
2023/11/30 04:17:39;;;;;;;10.13;6.30;;;;;;;0.14;74.14;95252.00;4825653;29;20059;-82
2023/11/30 04:20:09;;;;;;;10.90;6.82;;;;;;;0.15;74.22;95263.88;4826112;29;20139;-81
2023/11/30 04:22:37;;;;;;;10.07;6.32;;;;;;;0.18;74.22;95260.22;4825967;29;20081;-81
2023/11/30 04:25:08;;;;;;;10.65;6.13;;;;;;;0.19;74.16;95244.66;4825726;29;20058;-82
2023/11/30 04:27:36;;;;;;;10.77;6.38;;;;;;;0.20;74.09;95236.03;4825067;29;20577;-82
2023/11/30 04:30:06;;;;;;;10.23;6.82;;;;;;;0.20;74.72;95224.97;4825764;29;20118;-82
2023/11/30 04:32:35;;;;;;;10.63;7.20;;;;;;;0.20;74.26;95222.41;4825732;29;20062;-81
2023/11/30 04:35:05;;;;;;;14.20;6.82;;;;;;;0.19;74.22;95228.47;4825763;29;20462;-81
2023/11/30 04:37:33;;;;;;;10.45;7.55;;;;;;;0.19;74.34;95225.91;4825309;29;20081;-81
2023/11/30 04:40:01;;;;;;;12.48;7.80;;;;;;;0.18;74.00;95219.19;4825580;29;20077;-82
2023/11/30 04:42:31;;;;;;;10.45;7.60;;;;;;;0.19;74.39;95218.22;4825875;29;20441;-81
2023/11/30 04:44:59;;;;;;;12.82;7.22;;;;;;;0.19;74.32;95208.75;4825774;29;20108;-82
2023/11/30 04:47:28;;;;;;;10.30;6.72;;;;;;;0.22;74.43;95207.66;4825433;29;20058;-81
2023/11/30 04:49:56;;;;;;;10.38;7.38;;;;;;;0.23;74.10;95209.25;4825759;29;20046;-82
2023/11/30 04:52:24;;;;;;;11.48;7.03;;;;;;;0.21;73.78;95200.91;4825399;29;20078;-82
2023/11/30 04:54:52;;;;;;;11.57;7.85;;;;;;;0.22;73.97;95197.41;4824966;29;20142;-82
2023/11/30 04:57:19;;;;;;;10.95;7.47;;;;;;;0.24;74.04;95199.81;4825381;29;20046;-81
2023/11/30 04:59:49;;;;;;;11.45;6.65;;;;;;;0.24;74.33;95204.94;4825534;29;20082;-81
2023/11/30 05:02:17;;;;;;;12.30;7.68;;;;;;;0.27;74.95;95209.78;4825308;29;20055;-81
2023/11/30 05:04:45;;;;;;;10.23;7.13;;;;;;;0.29;74.87;95205.31;4825011;29;20521;-82
2023/11/30 05:07:13;;;;;;;11.23;7.60;;;;;;;0.29;74.67;95210.44;4824633;29;20050;-81
2023/11/30 05:09:42;;;;;;;12.80;6.97;;;;;;;0.33;75.96;95204.84;4825139;29;20085;-81
2023/11/30 05:12:11;;;;;;;10.55;6.57;;;;;;;0.39;75.60;95203.41;4825485;29;20489;-81
2023/11/30 05:14:39;;;;;;;10.85;7.25;;;;;;;0.45;75.93;95202.00;4808790;29;20058;-81
2023/11/30 05:17:08;;;;;;;11.98;7.45;;;;;;;0.50;76.09;95210.84;4824748;29;20054;-82
2023/11/30 05:19:36;;;;;;;9.70;6.38;;;;;;;0.54;75.31;95201.88;4825424;29;20154;-82
2023/11/30 05:22:05;;;;;;;13.45;7.15;;;;;;;0.58;75.03;95197.25;4825372;29;20145;-82
2023/11/30 05:24:33;;;;;;;12.02;8.20;;;;;;;0.62;75.04;95201.13;4825247;29;20062;-82
2023/11/30 05:27:03;;;;;;;12.35;9.00;;;;;;;0.64;75.09;95199.19;4825358;29;20061;-82
2023/11/30 05:29:32;;;;;;;12.50;8.57;;;;;;;0.67;75.25;95201.44;4825408;29;20074;-82
2023/11/30 05:32:03;;;;;;;11.57;8.40;;;;;;;0.66;74.22;95204.97;4825118;29;20054;-81
2023/11/30 05:34:35;;;;;;;11.93;8.77;;;;;;;0.65;74.82;95202.56;4825073;29;20058;-81
2023/11/30 05:37:05;;;;;;;15.00;10.18;;;;;;;0.66;75.59;95194.72;4824937;29;20058;-81
2023/11/30 05:42:00;;;;;;;15.73;10.15;;;;;;;0.63;74.68;95199.34;4823210;29;20122;-81
2023/11/30 05:44:28;;;;;;;14.43;9.63;;;;;;;0.59;74.27;95193.72;4824803;29;20080;-81
2023/11/30 05:46:56;;;;;;;16.48;9.68;;;;;;;0.54;73.79;95206.22;4824321;29;20086;-82
2023/11/30 05:49:23;;;;;;;16.35;11.70;;;;;;;0.50;74.26;95194.63;4824387;29;20089;-81
2023/11/30 05:51:52;;;;;;;14.18;9.68;;;;;;;0.46;74.58;95189.03;4830096;29;20054;-82
2023/11/30 05:54:20;;;;;;;18.52;9.98;;;;;;;0.45;74.52;95196.88;4830628;29;20085;-81
2023/11/30 05:56:48;;;;;;;15.35;10.32;;;;;;;0.45;74.46;95194.31;4830614;29;20114;-81
2023/11/30 05:59:15;;;;;;;15.68;10.93;;;;;;;0.45;74.53;95207.13;4830650;29;20058;-81
2023/11/30 06:01:43;;;;;;;19.73;10.65;;;;;;;0.45;74.47;95207.13;4825233;29;20057;-81
2023/11/30 06:04:11;;;;;;;17.38;12.25;;;;;;;0.44;74.80;95200.38;4812240;29;20054;-80
2023/11/30 06:06:40;;;;;;;18.52;10.85;;;;;;;0.39;74.70;95203.41;4812412;29;20066;-81
2023/11/30 06:09:09;;;;;;;18.45;12.05;;;;;;;0.34;74.48;95198.75;4812602;29;20065;-83
2023/11/30 06:11:37;;;;;;;17.80;11.77;;;;;;;0.29;74.23;95190.72;4816488;29;20051;-83
2023/11/30 06:14:06;;;;;;;20.30;12.30;;;;;;;0.24;74.05;95187.81;4815546;29;20059;-80
2023/11/30 06:16:33;;;;;;;26.83;12.70;;;;;;;0.19;74.38;95188.25;4813110;29;20079;-82
2023/11/30 06:19:01;;;;;;;20.83;12.95;;;;;;;0.16;74.02;95195.44;4820532;29;20064;-81
2023/11/30 06:21:28;;;;;;;23.67;12.48;;;;;;;0.11;74.41;95193.34;4830112;29;20051;-79
2023/11/30 06:23:56;;;;;;;23.50;12.63;;;;;;;0.07;74.15;95188.66;4813645;29;20115;-81
2023/11/30 06:26:25;;;;;;;24.55;12.70;;;;;;;0.02;75.16;95190.88;4812141;29;20054;-82
2023/11/30 06:28:52;;;;;;;21.95;14.30;;;;;;;0.00;74.98;95188.47;4818431;29;20102;-81
2023/11/30 06:31:20;;;;;;;23.73;13.63;;;;;;;-0.02;75.30;95190.38;4829294;29;20505;-81
2023/11/30 06:33:48;;;;;;;22.98;14.27;;;;;;;-0.02;76.30;95180.94;4829813;29;20050;-81
2023/11/30 06:36:16;;;;;;;27.67;15.52;;;;;;;0.02;76.63;95173.72;4830030;29;20054;-79
2023/11/30 06:38:43;;;;;;;22.60;14.32;;;;;;;0.03;76.58;95170.22;4811800;29;20513;-81
2023/11/30 06:41:11;;;;;;;18.20;13.15;;;;;;;0.04;76.27;95169.25;4811344;29;20509;-80
2023/11/30 06:43:41;;;;;;;28.98;16.75;;;;;;;0.08;76.48;95154.38;4811357;29;20179;-80
2023/11/30 06:46:08;;;;;;;26.60;15.75;;;;;;;0.11;76.68;95154.88;4818865;29;20050;-81
2023/11/30 06:48:36;;;;;;;22.30;13.82;;;;;;;0.16;76.97;95155.22;4811298;29;20137;-80
2023/11/30 06:51:07;;;;;;;25.42;15.20;;;;;;;0.19;78.06;95156.66;4811070;29;20506;-81
2023/11/30 06:53:34;;;;;;;26.48;15.70;;;;;;;0.22;77.52;95166.63;4814517;29;20102;-81
2023/11/30 06:56:02;;;;;;;24.60;15.40;;;;;;;0.24;77.03;95159.59;4828014;29;20076;-81
2023/11/30 06:58:29;;;;;;;25.33;15.93;;;;;;;0.24;76.57;95159.59;4810874;29;20058;-81
2023/11/30 07:00:58;;;;;;;34.33;16.92;;;;;;;0.24;77.20;95159.59;4812586;29;20133;-82
2023/11/30 07:03:28;;;;;;;24.80;15.23;;;;;;;0.26;76.56;95167.91;4811423;29;20078;-80
2023/11/30 07:05:56;;;;;;;24.70;14.70;;;;;;;0.25;76.08;95160.41;4827623;29;20046;-82
2023/11/30 07:08:24;;;;;;;20.30;13.18;;;;;;;0.24;76.08;95148.50;4817155;29;20133;-82
2023/11/30 07:10:51;;;;;;;25.65;14.70;;;;;;;0.24;76.64;95143.38;4831217;29;20069;-81
2023/11/30 07:13:19;;;;;;;23.83;14.13;;;;;;;0.23;76.90;95140.03;4832848;29;20051;-83
2023/11/30 07:15:47;;;;;;;24.05;14.00;;;;;;;0.24;77.07;95139.09;4838109;29;20102;-83
2023/11/30 07:18:17;;;;;;;23.98;16.20;;;;;;;0.24;76.91;95139.09;4831980;29;20054;-82
2023/11/30 07:20:45;;;;;;;26.73;14.85;;;;;;;0.23;76.98;95147.72;4817109;29;20469;-82
2023/11/30 07:23:13;;;;;;;26.13;16.13;;;;;;;0.23;77.61;95147.72;4827204;29;20096;-83
2023/11/30 07:25:41;;;;;;;20.52;14.80;;;;;;;0.23;78.27;95142.59;4811083;29;20047;-83
2023/11/30 07:28:08;;;;;;;21.13;14.13;;;;;;;0.27;77.91;95153.34;4820299;29;20105;-82
2023/11/30 07:30:40;;;;;;;25.05;15.05;;;;;;;0.29;78.04;95151.44;4815812;29;20553;-82
2023/11/30 07:33:08;;;;;;;20.02;13.25;;;;;;;0.30;77.36;95163.28;4808536;29;20055;-82
2023/11/30 07:35:38;;;;;;;22.38;14.07;;;;;;;0.30;77.30;95165.84;4815817;29;20050;-83
2023/11/30 07:38:06;;;;;;;24.48;15.35;;;;;;;0.30;77.77;95164.09;4828525;29;20065;-83
2023/11/30 07:40:34;;;;;;;19.70;13.52;;;;;;;0.31;78.11;95155.44;4827740;29;20115;-82
2023/11/30 07:43:02;;;;;;;22.65;15.10;;;;;;;0.29;77.29;95157.38;4813528;29;20058;-82
2023/11/30 07:45:31;;;;;;;21.50;14.15;;;;;;;0.30;76.78;95158.97;4809901;29;20111;-83
2023/11/30 07:54:04;;;;;;;22.77;15.73;;;;;;;0.26;76.76;95138.91;4850057;29;20080;-83
2023/11/30 07:56:54;;;;;;;26.40;14.88;;;;;;;0.28;76.43;95139.56;4815140;29;20496;-83
2023/11/30 07:59:24;;;;;;;23.63;15.85;;;;;;;0.29;77.31;95146.31;4811134;29;20058;-83
2023/11/30 08:02:07;;;;;;;23.10;17.00;;;;;;;0.36;78.66;95153.22;4797250;30;20063;-83
2023/11/30 08:09:15;;;;;;;18.92;14.27;;;;;;;0.45;75.88;95155.81;4759111;30;20159;-83
2023/11/30 08:19:14;;;;;;;20.73;14.65;;;;;;;0.40;74.82;95144.25;4757100;30;20060;-83
2023/11/30 08:21:43;;;;;;;22.98;15.80;;;;;;;0.35;75.35;95143.94;4739011;30;20082;-82
2023/11/30 08:24:13;;;;;;;19.88;14.40;;;;;;;0.34;75.32;95154.34;4752993;30;20547;-83
2023/11/30 08:29:47;;;;;;;22.42;15.15;;;;;;;0.37;75.36;95131.75;4807818;29;20061;-82
2023/11/30 08:32:14;;;;;;;23.20;15.43;;;;;;;0.41;75.26;95124.53;4796352;29;20075;-83
2023/11/30 08:34:42;;;;;;;21.92;14.73;;;;;;;0.46;75.72;95126.63;4788773;30;20766;-82
2023/11/30 08:37:10;;;;;;;18.60;12.93;;;;;;;0.53;76.42;95132.78;4788280;30;20055;-81
2023/11/30 08:39:42;;;;;;;20.45;14.18;;;;;;;0.60;77.89;95126.03;4788201;30;20059;-82
2023/11/30 08:42:12;;;;;;;15.68;11.23;;;;;;;0.68;76.93;95138.91;4788834;30;20051;-82
2023/11/30 08:44:41;;;;;;;19.20;11.85;;;;;;;0.75;75.70;95129.63;4789064;29;20551;-82
2023/11/30 08:47:10;;;;;;;22.48;13.38;;;;;;;0.81;76.34;95133.34;4803769;29;20058;-82
2023/11/30 08:49:38;;;;;;;19.00;11.60;;;;;;;0.86;76.27;95128.53;4793132;29;20052;-79
2023/11/30 08:52:07;;;;;;;17.50;11.80;;;;;;;0.89;75.59;95135.88;4794191;29;20082;-79
2023/11/30 08:54:35;;;;;;;16.48;10.73;;;;;;;0.93;75.69;95144.09;4831549;29;20137;-79
2023/11/30 08:57:04;;;;;;;17.60;11.75;;;;;;;0.98;76.05;95141.84;4828420;29;20509;-79
2023/11/30 08:59:32;;;;;;;14.30;9.90;;;;;;;1.00;75.91;95142.50;4826729;29;20054;-79
2023/11/30 09:01:59;;;;;;;17.58;11.15;;;;;;;1.02;76.23;95133.66;4840251;29;20132;-81
2023/11/30 09:04:27;;;;;;;15.75;11.52;;;;;;;1.03;75.96;95113.94;4844934;29;20528;-81
2023/11/30 09:06:54;;;;;;;17.15;11.43;;;;;;;1.05;76.49;95111.19;4844887;29;20057;-79
2023/11/30 09:09:23;;;;;;;16.92;9.48;;;;;;;1.05;76.58;95112.03;4842796;29;20081;-80
2023/11/30 09:11:51;;;;;;;13.38;8.05;;;;;;;1.03;76.15;95098.53;4836356;29;20054;-80
2023/11/30 09:14:19;;;;;;;12.57;7.97;;;;;;;1.06;75.29;95112.81;4826890;29;20145;-80
2023/11/30 09:16:46;;;;;;;15.80;9.50;;;;;;;1.07;76.44;95120.34;4827827;29;20078;-79
2023/11/30 09:19:14;;;;;;;13.88;8.65;;;;;;;1.11;76.70;95129.34;4831671;29;20093;-79
2023/11/30 09:21:41;;;;;;;13.18;9.32;;;;;;;1.10;75.90;95114.91;4840552;29;20580;-80
2023/11/30 09:24:10;;;;;;;10.07;6.70;;;;;;;1.09;74.37;95110.72;4825372;29;20759;-79
2023/11/30 09:26:39;;;;;;;9.75;7.30;;;;;;;1.08;73.35;95100.63;4825010;29;20050;-80
2023/11/30 09:29:11;;;;;;;9.82;7.13;;;;;;;1.08;72.87;95101.41;4832258;29;20045;-79
2023/11/30 09:31:40;;;;;;;10.52;7.53;;;;;;;1.10;72.53;95096.13;4830992;29;20084;-79
2023/11/30 09:34:08;;;;;;;9.88;7.20;;;;;;;1.11;72.21;95088.25;4829886;29;20062;-80
2023/11/30 09:36:36;;;;;;;9.77;6.55;;;;;;;1.17;72.12;95097.88;4825762;29;20062;-80
2023/11/30 09:39:04;;;;;;;10.18;7.50;;;;;;;1.24;72.93;95103.97;4827625;29;20049;-79
2023/11/30 09:41:32;;;;;;;10.82;7.65;;;;;;;1.31;73.06;95106.75;4842397;29;20046;-81
2023/11/30 09:44:01;;;;;;;9.30;6.85;;;;;;;1.37;72.90;95100.94;4840852;29;20073;-78
2023/11/30 09:46:30;;;;;;;12.63;7.30;;;;;;;1.42;72.16;95098.69;4841116;29;20054;-78
2023/11/30 09:48:58;;;;;;;9.18;6.43;;;;;;;1.49;71.18;95098.84;4826202;29;20058;-79
2023/11/30 09:51:27;;;;;;;11.00;7.10;;;;;;;1.53;70.99;95100.13;4825792;29;20486;-79
2023/11/30 09:53:57;;;;;;;12.20;8.13;;;;;;;1.60;71.82;95090.81;4826167;29;20050;-79
2023/11/30 09:56:26;;;;;;;14.95;9.00;;;;;;;1.65;71.74;95098.03;4825255;29;20058;-79
2023/11/30 09:58:54;;;;;;;13.98;8.02;;;;;;;1.69;71.45;95094.16;4826033;29;20054;-79
2023/11/30 10:01:24;;;;;;;13.05;7.70;;;;;;;1.74;70.74;95091.09;4831563;29;20505;-80
2023/11/30 10:03:52;;;;;;;11.15;7.47;;;;;;;1.77;70.91;95076.16;4824243;29;20092;-79
2023/11/30 10:06:20;;;;;;;10.50;7.40;;;;;;;1.79;70.64;95071.66;4831200;29;20057;-80
2023/11/30 10:08:48;;;;;;;12.73;8.18;;;;;;;1.80;70.47;95075.81;4833604;29;20061;-79
2023/11/30 10:11:15;;;;;;;12.25;8.38;;;;;;;1.82;70.74;95079.03;4831758;29;20596;-79
2023/11/30 10:13:43;;;;;;;11.45;7.70;;;;;;;1.82;70.33;95086.75;4827887;29;20441;-79
2023/11/30 10:16:11;;;;;;;11.35;8.60;;;;;;;1.79;70.33;95086.25;4827068;29;20080;-79
2023/11/30 10:18:42;;;;;;;11.32;8.10;;;;;;;1.76;70.19;95087.38;4842839;29;20055;-80
2023/11/30 10:21:10;;;;;;;12.10;9.13;;;;;;;1.74;71.09;95081.59;4845280;29;20096;-80
2023/11/30 10:23:38;;;;;;;12.57;8.52;;;;;;;1.72;71.24;95078.41;4842464;29;20524;-79
2023/11/30 10:26:07;;;;;;;12.57;9.05;;;;;;;1.69;70.52;95072.81;4833731;29;20057;-80
2023/11/30 10:28:35;;;;;;;9.60;7.18;;;;;;;1.67;70.29;95083.25;4824882;29;20051;-80
2023/11/30 10:31:05;;;;;;;10.15;7.15;;;;;;;1.60;69.99;95077.16;4835853;29;20073;-80
2023/11/30 10:33:36;;;;;;;9.25;6.47;;;;;;;1.57;70.25;95067.97;4841239;29;20137;-79
2023/11/30 10:36:08;;;;;;;10.15;7.55;;;;;;;1.58;70.04;95067.03;4843243;29;20058;-80
2023/11/30 10:38:38;;;;;;;10.35;7.55;;;;;;;1.56;70.17;95068.97;4843930;29;20141;-81
2023/11/30 10:41:11;;;;;;;12.80;7.72;;;;;;;1.52;70.37;95054.81;4845406;29;20050;-81
2023/11/30 10:43:46;;;;;;;10.30;6.43;;;;;;;1.52;70.42;95043.75;4843615;29;20058;-80
2023/11/30 10:46:14;;;;;;;12.15;7.63;;;;;;;1.54;70.69;95037.47;4834661;29;20119;-81
2023/11/30 10:48:42;;;;;;;11.68;6.80;;;;;;;1.59;70.61;95029.28;4834205;29;20065;-79
2023/11/30 10:51:12;;;;;;;9.65;6.95;;;;;;;1.59;70.83;95017.22;4828677;29;20712;-79
2023/11/30 10:53:50;;;;;;;13.45;7.75;;;;;;;1.62;71.16;95016.91;4845281;29;20524;-78
2023/11/30 10:56:19;;;;;;;11.13;7.00;;;;;;;1.62;71.22;95009.19;4846047;29;20089;-80
2023/11/30 10:58:47;;;;;;;11.60;7.07;;;;;;;1.65;71.09;95003.72;4845890;29;20053;-79
2023/11/30 11:01:15;;;;;;;10.45;7.38;;;;;;;1.67;71.43;95006.13;4845214;29;20062;-80
2023/11/30 11:03:46;;;;;;;12.18;7.70;;;;;;;1.67;72.37;95005.34;4829394;29;20406;-79
2023/11/30 11:06:16;;;;;;;12.65;7.93;;;;;;;1.64;72.29;94994.41;4828751;29;20771;-80
2023/11/30 11:08:59;;;;;;;9.60;7.13;;;;;;;1.61;71.27;94994.72;4827996;29;20055;-80
2023/11/30 11:11:29;;;;;;;11.38;7.28;;;;;;;1.60;71.93;94993.13;4829239;29;20057;-80
2023/11/30 11:13:57;;;;;;;10.60;7.57;;;;;;;1.59;72.80;94993.28;4842831;29;20070;-81
2023/11/30 11:16:35;;;;;;;10.15;7.90;;;;;;;1.58;72.45;95009.69;4827127;29;20058;-79
2023/11/30 11:19:05;;;;;;;12.43;7.28;;;;;;;1.58;73.77;95002.78;4826765;29;20093;-80
2023/11/30 11:21:38;;;;;;;12.85;7.93;;;;;;;1.59;72.38;94999.22;4827166;29;20058;-79
2023/11/30 11:24:08;;;;;;;11.55;7.80;;;;;;;1.60;73.04;94990.56;4828408;29;20054;-80
2023/11/30 11:26:47;;;;;;;10.68;7.32;;;;;;;1.63;73.55;94987.66;4828590;29;20058;-80
2023/11/30 11:29:16;;;;;;;10.90;6.63;;;;;;;1.67;73.12;95000.19;4827680;29;20059;-80
2023/11/30 11:31:54;;;;;;;12.25;8.48;;;;;;;1.69;74.10;95001.63;4826984;29;20436;-80
2023/11/30 11:34:21;;;;;;;11.38;8.23;;;;;;;1.73;73.46;95007.22;4828720;29;20103;-80
2023/11/30 11:36:50;;;;;;;10.80;8.27;;;;;;;1.74;73.87;95008.84;4827168;29;20211;-80
2023/11/30 11:39:18;;;;;;;13.07;8.30;;;;;;;1.75;73.80;94998.41;4827332;29;20493;-79
2023/11/30 11:41:48;;;;;;;10.50;7.20;;;;;;;1.79;74.10;95011.69;4827539;29;20065;-80
2023/11/30 11:44:17;;;;;;;10.00;7.43;;;;;;;1.79;73.35;95004.81;4829577;29;20058;-81
2023/11/30 11:46:46;;;;;;;11.65;8.02;;;;;;;1.78;73.92;95008.34;4839730;29;20456;-80
2023/11/30 11:49:14;;;;;;;11.05;7.50;;;;;;;1.81;74.19;95000.28;4833917;29;20083;-81
2023/11/30 11:51:44;;;;;;;11.95;9.18;;;;;;;1.85;74.63;94991.25;4836075;29;20043;-80
2023/11/30 11:54:21;;;;;;;12.60;8.10;;;;;;;1.89;74.50;95002.03;4858125;29;20054;-81
2023/11/30 11:56:51;;;;;;;12.48;7.68;;;;;;;1.90;74.09;94998.47;4851684;29;20065;-81
2023/11/30 11:59:20;;;;;;;14.02;8.70;;;;;;;1.90;74.36;94998.47;4846613;29;20712;-79
2023/11/30 12:01:48;;;;;;;18.13;10.25;;;;;;;1.89;74.08;94991.75;4828832;29;20085;-80
2023/11/30 12:04:26;;;;;;;12.68;9.27;;;;;;;1.90;74.73;94987.41;4846215;29;20050;-80
2023/11/30 12:06:54;;;;;;;15.13;9.45;;;;;;;1.89;75.09;94972.94;4845848;29;20065;-82